sensor_id;sensor_type;location;lat;lon;timestamp;P1;durP1;ratioP1;P2;durP2;ratioP2
47219;SDS011;32961;51.936;4.788;2023-06-01T00:00:44;20.48;;;10.85;;
47219;SDS011;32961;51.936;4.788;2023-06-01T00:03:12;18.90;;;11.48;;
47219;SDS011;32961;51.936;4.788;2023-06-01T00:05:41;19.20;;;10.77;;
47219;SDS011;32961;51.936;4.788;2023-06-01T00:08:09;18.77;;;11.48;;
47219;SDS011;32961;51.936;4.788;2023-06-01T00:10:37;17.25;;;10.73;;
47219;SDS011;32961;51.936;4.788;2023-06-01T00:13:04;14.82;;;10.02;;
47219;SDS011;32961;51.936;4.788;2023-06-01T00:15:32;15.02;;;9.95;;
47219;SDS011;32961;51.936;4.788;2023-06-01T00:18:00;17.45;;;11.13;;
47219;SDS011;32961;51.936;4.788;2023-06-01T00:20:28;17.23;;;9.88;;
47219;SDS011;32961;51.936;4.788;2023-06-01T00:22:59;18.25;;;10.10;;
47219;SDS011;32961;51.936;4.788;2023-06-01T00:25:29;19.17;;;9.18;;
47219;SDS011;32961;51.936;4.788;2023-06-01T00:27:56;16.80;;;9.82;;
47219;SDS011;32961;51.936;4.788;2023-06-01T00:30:24;20.23;;;9.93;;
47219;SDS011;32961;51.936;4.788;2023-06-01T00:32:52;14.00;;;9.00;;
47219;SDS011;32961;51.936;4.788;2023-06-01T00:35:20;15.52;;;9.55;;
47219;SDS011;32961;51.936;4.788;2023-06-01T00:37:48;18.92;;;10.00;;
47219;SDS011;32961;51.936;4.788;2023-06-01T00:40:17;17.60;;;9.60;;
47219;SDS011;32961;51.936;4.788;2023-06-01T00:42:45;16.08;;;9.13;;
47219;SDS011;32961;51.936;4.788;2023-06-01T00:45:13;13.98;;;8.52;;
47219;SDS011;32961;51.936;4.788;2023-06-01T00:47:42;15.60;;;8.88;;
47219;SDS011;32961;51.936;4.788;2023-06-01T00:50:11;19.45;;;9.05;;
47219;SDS011;32961;51.936;4.788;2023-06-01T00:52:39;17.83;;;8.95;;
47219;SDS011;32961;51.936;4.788;2023-06-01T00:55:08;15.95;;;9.00;;
47219;SDS011;32961;51.936;4.788;2023-06-01T00:57:39;22.95;;;10.10;;
47219;SDS011;32961;51.936;4.788;2023-06-01T01:00:10;18.38;;;9.70;;
47219;SDS011;32961;51.936;4.788;2023-06-01T01:02:38;16.80;;;9.75;;
47219;SDS011;32961;51.936;4.788;2023-06-01T01:05:08;15.30;;;9.70;;
47219;SDS011;32961;51.936;4.788;2023-06-01T01:07:38;16.25;;;10.25;;
47219;SDS011;32961;51.936;4.788;2023-06-01T01:10:19;15.13;;;10.32;;
47219;SDS011;32961;51.936;4.788;2023-06-01T01:12:56;18.42;;;10.05;;
47219;SDS011;32961;51.936;4.788;2023-06-01T01:15:41;20.33;;;10.13;;
47219;SDS011;32961;51.936;4.788;2023-06-01T01:18:20;11.15;;;8.65;;
47219;SDS011;32961;51.936;4.788;2023-06-01T01:20:55;16.02;;;8.18;;
47219;SDS011;32961;51.936;4.788;2023-06-01T01:23:38;13.73;;;8.67;;
47219;SDS011;32961;51.936;4.788;2023-06-01T01:26:28;13.15;;;8.63;;
47219;SDS011;32961;51.936;4.788;2023-06-01T01:29:09;13.68;;;7.65;;
47219;SDS011;32961;51.936;4.788;2023-06-01T01:31:39;15.52;;;8.07;;
47219;SDS011;32961;51.936;4.788;2023-06-01T01:34:08;15.57;;;8.10;;
47219;SDS011;32961;51.936;4.788;2023-06-01T01:36:37;13.20;;;8.05;;
47219;SDS011;32961;51.936;4.788;2023-06-01T01:39:05;18.75;;;9.20;;
47219;SDS011;32961;51.936;4.788;2023-06-01T01:41:33;18.85;;;8.00;;
47219;SDS011;32961;51.936;4.788;2023-06-01T01:44:01;13.52;;;7.72;;
47219;SDS011;32961;51.936;4.788;2023-06-01T01:46:32;12.20;;;7.22;;
47219;SDS011;32961;51.936;4.788;2023-06-01T01:49:07;15.80;;;7.93;;
47219;SDS011;32961;51.936;4.788;2023-06-01T01:51:40;20.42;;;8.82;;
47219;SDS011;32961;51.936;4.788;2023-06-01T01:54:16;15.57;;;8.07;;
47219;SDS011;32961;51.936;4.788;2023-06-01T01:56:48;19.77;;;7.82;;
47219;SDS011;32961;51.936;4.788;2023-06-01T01:59:17;23.05;;;8.32;;
47219;SDS011;32961;51.936;4.788;2023-06-01T02:01:47;10.30;;;7.18;;
47219;SDS011;32961;51.936;4.788;2023-06-01T02:04:15;16.25;;;8.23;;
47219;SDS011;32961;51.936;4.788;2023-06-01T02:06:43;10.43;;;7.18;;
47219;SDS011;32961;51.936;4.788;2023-06-01T02:09:10;20.02;;;8.13;;
47219;SDS011;32961;51.936;4.788;2023-06-01T02:11:38;14.35;;;7.43;;
47219;SDS011;32961;51.936;4.788;2023-06-01T02:14:09;13.07;;;7.75;;
47219;SDS011;32961;51.936;4.788;2023-06-01T02:16:36;19.10;;;7.82;;
47219;SDS011;32961;51.936;4.788;2023-06-01T02:19:06;17.65;;;7.82;;
47219;SDS011;32961;51.936;4.788;2023-06-01T02:21:37;13.70;;;7.60;;
47219;SDS011;32961;51.936;4.788;2023-06-01T02:24:05;15.27;;;8.27;;
47219;SDS011;32961;51.936;4.788;2023-06-01T02:26:33;16.00;;;8.02;;
47219;SDS011;32961;51.936;4.788;2023-06-01T02:29:02;12.25;;;7.40;;
47219;SDS011;32961;51.936;4.788;2023-06-01T02:31:31;12.13;;;8.02;;
47219;SDS011;32961;51.936;4.788;2023-06-01T02:33:59;16.65;;;7.95;;
47219;SDS011;32961;51.936;4.788;2023-06-01T02:36:29;14.93;;;7.57;;
47219;SDS011;32961;51.936;4.788;2023-06-01T02:38:58;16.13;;;8.18;;
47219;SDS011;32961;51.936;4.788;2023-06-01T02:41:26;18.33;;;8.25;;
47219;SDS011;32961;51.936;4.788;2023-06-01T02:43:54;11.50;;;8.02;;
47219;SDS011;32961;51.936;4.788;2023-06-01T02:46:22;14.48;;;7.55;;
47219;SDS011;32961;51.936;4.788;2023-06-01T02:48:50;19.90;;;9.32;;
47219;SDS011;32961;51.936;4.788;2023-06-01T02:51:19;16.95;;;9.70;;
47219;SDS011;32961;51.936;4.788;2023-06-01T02:53:48;15.48;;;8.07;;
47219;SDS011;32961;51.936;4.788;2023-06-01T02:56:16;17.25;;;8.57;;
47219;SDS011;32961;51.936;4.788;2023-06-01T02:58:44;13.98;;;7.28;;
47219;SDS011;32961;51.936;4.788;2023-06-01T03:01:12;13.98;;;7.90;;
47219;SDS011;32961;51.936;4.788;2023-06-01T03:03:41;13.93;;;7.63;;
47219;SDS011;32961;51.936;4.788;2023-06-01T03:06:09;15.35;;;8.27;;
47219;SDS011;32961;51.936;4.788;2023-06-01T03:08:39;14.27;;;7.38;;
47219;SDS011;32961;51.936;4.788;2023-06-01T03:11:08;13.05;;;7.25;;
47219;SDS011;32961;51.936;4.788;2023-06-01T03:13:36;13.98;;;7.68;;
47219;SDS011;32961;51.936;4.788;2023-06-01T03:16:04;15.65;;;7.88;;
47219;SDS011;32961;51.936;4.788;2023-06-01T03:18:32;19.33;;;7.82;;
47219;SDS011;32961;51.936;4.788;2023-06-01T03:21:04;18.75;;;7.00;;
47219;SDS011;32961;51.936;4.788;2023-06-01T03:23:32;12.85;;;7.53;;
47219;SDS011;32961;51.936;4.788;2023-06-01T03:25:59;13.00;;;7.43;;
47219;SDS011;32961;51.936;4.788;2023-06-01T03:28:31;11.98;;;7.50;;
47219;SDS011;32961;51.936;4.788;2023-06-01T03:30:59;16.15;;;8.00;;
47219;SDS011;32961;51.936;4.788;2023-06-01T03:33:28;15.13;;;7.88;;
47219;SDS011;32961;51.936;4.788;2023-06-01T03:35:56;18.20;;;7.68;;
47219;SDS011;32961;51.936;4.788;2023-06-01T03:38:23;15.38;;;8.15;;
47219;SDS011;32961;51.936;4.788;2023-06-01T03:40:51;17.42;;;7.57;;
47219;SDS011;32961;51.936;4.788;2023-06-01T03:43:19;16.52;;;7.80;;
47219;SDS011;32961;51.936;4.788;2023-06-01T03:45:48;14.73;;;7.28;;
47219;SDS011;32961;51.936;4.788;2023-06-01T03:48:17;19.67;;;8.10;;
47219;SDS011;32961;51.936;4.788;2023-06-01T03:50:44;20.75;;;8.48;;
47219;SDS011;32961;51.936;4.788;2023-06-01T03:53:13;16.00;;;7.63;;
47219;SDS011;32961;51.936;4.788;2023-06-01T03:55:42;13.32;;;7.60;;
47219;SDS011;32961;51.936;4.788;2023-06-01T03:58:10;12.43;;;8.00;;
47219;SDS011;32961;51.936;4.788;2023-06-01T04:00:38;16.90;;;8.25;;
47219;SDS011;32961;51.936;4.788;2023-06-01T04:03:07;14.98;;;8.20;;
47219;SDS011;32961;51.936;4.788;2023-06-01T04:05:35;16.17;;;7.97;;
47219;SDS011;32961;51.936;4.788;2023-06-01T04:08:03;11.23;;;6.88;;
47219;SDS011;32961;51.936;4.788;2023-06-01T04:10:31;20.90;;;7.50;;
47219;SDS011;32961;51.936;4.788;2023-06-01T04:12:59;17.65;;;8.63;;
47219;SDS011;32961;51.936;4.788;2023-06-01T04:15:27;12.30;;;7.78;;
47219;SDS011;32961;51.936;4.788;2023-06-01T04:17:55;15.55;;;7.25;;
47219;SDS011;32961;51.936;4.788;2023-06-01T04:20:24;28.63;;;8.00;;
47219;SDS011;32961;51.936;4.788;2023-06-01T04:22:52;14.30;;;7.03;;
47219;SDS011;32961;51.936;4.788;2023-06-01T04:25:20;15.77;;;7.72;;
47219;SDS011;32961;51.936;4.788;2023-06-01T04:27:49;21.27;;;7.93;;
47219;SDS011;32961;51.936;4.788;2023-06-01T04:30:21;17.38;;;7.25;;
47219;SDS011;32961;51.936;4.788;2023-06-01T04:32:48;16.83;;;7.63;;
47219;SDS011;32961;51.936;4.788;2023-06-01T04:35:17;18.55;;;7.93;;
47219;SDS011;32961;51.936;4.788;2023-06-01T04:37:46;15.25;;;7.45;;
47219;SDS011;32961;51.936;4.788;2023-06-01T04:40:15;18.00;;;7.00;;
47219;SDS011;32961;51.936;4.788;2023-06-01T04:42:43;15.38;;;7.40;;
47219;SDS011;32961;51.936;4.788;2023-06-01T04:45:16;18.48;;;7.10;;
47219;SDS011;32961;51.936;4.788;2023-06-01T04:47:45;15.05;;;7.57;;
47219;SDS011;32961;51.936;4.788;2023-06-01T04:50:14;14.98;;;7.57;;
47219;SDS011;32961;51.936;4.788;2023-06-01T04:52:43;16.75;;;7.78;;
47219;SDS011;32961;51.936;4.788;2023-06-01T04:55:13;20.90;;;7.72;;
47219;SDS011;32961;51.936;4.788;2023-06-01T04:57:41;19.10;;;7.85;;
47219;SDS011;32961;51.936;4.788;2023-06-01T05:00:12;19.27;;;8.18;;
47219;SDS011;32961;51.936;4.788;2023-06-01T05:02:46;13.77;;;7.38;;
47219;SDS011;32961;51.936;4.788;2023-06-01T05:05:16;17.85;;;7.45;;
47219;SDS011;32961;51.936;4.788;2023-06-01T05:07:44;16.83;;;7.57;;
47219;SDS011;32961;51.936;4.788;2023-06-01T05:10:13;20.67;;;7.85;;
47219;SDS011;32961;51.936;4.788;2023-06-01T05:12:41;14.98;;;8.25;;
47219;SDS011;32961;51.936;4.788;2023-06-01T05:15:10;16.63;;;7.72;;
47219;SDS011;32961;51.936;4.788;2023-06-01T05:17:39;16.00;;;7.45;;
47219;SDS011;32961;51.936;4.788;2023-06-01T05:20:07;19.95;;;7.93;;
47219;SDS011;32961;51.936;4.788;2023-06-01T05:22:37;14.90;;;7.13;;
47219;SDS011;32961;51.936;4.788;2023-06-01T05:25:05;19.13;;;7.90;;
47219;SDS011;32961;51.936;4.788;2023-06-01T05:27:35;20.02;;;8.07;;
47219;SDS011;32961;51.936;4.788;2023-06-01T05:30:04;18.88;;;8.23;;
47219;SDS011;32961;51.936;4.788;2023-06-01T05:32:33;17.58;;;7.30;;
47219;SDS011;32961;51.936;4.788;2023-06-01T05:35:01;16.83;;;8.52;;
47219;SDS011;32961;51.936;4.788;2023-06-01T05:37:29;16.48;;;7.50;;
47219;SDS011;32961;51.936;4.788;2023-06-01T05:39:57;18.80;;;8.02;;
47219;SDS011;32961;51.936;4.788;2023-06-01T05:42:25;14.38;;;7.68;;
47219;SDS011;32961;51.936;4.788;2023-06-01T05:44:54;19.80;;;7.53;;
47219;SDS011;32961;51.936;4.788;2023-06-01T05:47:22;18.10;;;7.85;;
47219;SDS011;32961;51.936;4.788;2023-06-01T05:49:50;14.27;;;7.93;;
47219;SDS011;32961;51.936;4.788;2023-06-01T05:52:18;25.33;;;9.13;;
47219;SDS011;32961;51.936;4.788;2023-06-01T05:54:46;21.75;;;8.52;;
47219;SDS011;32961;51.936;4.788;2023-06-01T05:57:16;15.93;;;8.60;;
47219;SDS011;32961;51.936;4.788;2023-06-01T05:59:44;14.73;;;7.95;;
47219;SDS011;32961;51.936;4.788;2023-06-01T06:02:14;21.70;;;8.63;;
47219;SDS011;32961;51.936;4.788;2023-06-01T06:04:43;19.77;;;9.10;;
47219;SDS011;32961;51.936;4.788;2023-06-01T06:07:11;20.42;;;7.60;;
47219;SDS011;32961;51.936;4.788;2023-06-01T06:09:39;14.93;;;7.63;;
47219;SDS011;32961;51.936;4.788;2023-06-01T06:12:07;17.48;;;8.07;;
47219;SDS011;32961;51.936;4.788;2023-06-01T06:14:35;11.73;;;6.13;;
47219;SDS011;32961;51.936;4.788;2023-06-01T06:17:06;13.77;;;7.13;;
47219;SDS011;32961;51.936;4.788;2023-06-01T06:19:35;14.48;;;6.70;;
47219;SDS011;32961;51.936;4.788;2023-06-01T06:22:03;15.70;;;7.13;;
47219;SDS011;32961;51.936;4.788;2023-06-01T06:24:31;13.20;;;6.78;;
47219;SDS011;32961;51.936;4.788;2023-06-01T06:26:59;15.07;;;6.65;;
47219;SDS011;32961;51.936;4.788;2023-06-01T06:29:28;17.98;;;7.25;;
47219;SDS011;32961;51.936;4.788;2023-06-01T06:31:56;17.42;;;7.80;;
47219;SDS011;32961;51.936;4.788;2023-06-01T06:34:24;16.40;;;6.30;;
47219;SDS011;32961;51.936;4.788;2023-06-01T06:36:54;14.32;;;6.43;;
47219;SDS011;32961;51.936;4.788;2023-06-01T06:39:21;14.93;;;7.07;;
47219;SDS011;32961;51.936;4.788;2023-06-01T06:41:49;17.42;;;6.95;;
47219;SDS011;32961;51.936;4.788;2023-06-01T06:44:17;17.67;;;7.15;;
47219;SDS011;32961;51.936;4.788;2023-06-01T06:46:45;15.50;;;6.60;;
47219;SDS011;32961;51.936;4.788;2023-06-01T06:49:13;10.40;;;6.82;;
47219;SDS011;32961;51.936;4.788;2023-06-01T06:51:42;13.30;;;7.65;;
47219;SDS011;32961;51.936;4.788;2023-06-01T06:54:11;14.10;;;6.97;;
47219;SDS011;32961;51.936;4.788;2023-06-01T06:56:39;15.88;;;5.88;;
47219;SDS011;32961;51.936;4.788;2023-06-01T06:59:07;13.93;;;5.80;;
47219;SDS011;32961;51.936;4.788;2023-06-01T07:01:36;15.68;;;5.72;;
47219;SDS011;32961;51.936;4.788;2023-06-01T07:04:07;13.95;;;5.75;;
47219;SDS011;32961;51.936;4.788;2023-06-01T07:06:35;12.95;;;6.13;;
47219;SDS011;32961;51.936;4.788;2023-06-01T07:09:03;14.95;;;5.80;;
47219;SDS011;32961;51.936;4.788;2023-06-01T07:11:34;12.07;;;5.30;;
47219;SDS011;32961;51.936;4.788;2023-06-01T07:14:02;13.88;;;5.78;;
47219;SDS011;32961;51.936;4.788;2023-06-01T07:16:30;16.27;;;6.50;;
47219;SDS011;32961;51.936;4.788;2023-06-01T07:18:57;12.15;;;5.15;;
47219;SDS011;32961;51.936;4.788;2023-06-01T07:21:26;15.68;;;5.43;;
47219;SDS011;32961;51.936;4.788;2023-06-01T07:23:53;11.75;;;5.28;;
47219;SDS011;32961;51.936;4.788;2023-06-01T07:26:22;13.07;;;5.60;;
47219;SDS011;32961;51.936;4.788;2023-06-01T07:28:52;13.77;;;5.40;;
47219;SDS011;32961;51.936;4.788;2023-06-01T07:31:21;10.98;;;4.68;;
47219;SDS011;32961;51.936;4.788;2023-06-01T07:33:49;10.43;;;5.07;;
47219;SDS011;32961;51.936;4.788;2023-06-01T07:36:18;12.15;;;7.47;;
47219;SDS011;32961;51.936;4.788;2023-06-01T07:38:46;11.98;;;5.53;;
47219;SDS011;32961;51.936;4.788;2023-06-01T07:41:14;11.48;;;5.10;;
47219;SDS011;32961;51.936;4.788;2023-06-01T07:43:42;8.35;;;4.55;;
47219;SDS011;32961;51.936;4.788;2023-06-01T07:46:11;14.80;;;5.47;;
47219;SDS011;32961;51.936;4.788;2023-06-01T07:48:39;13.88;;;5.85;;
47219;SDS011;32961;51.936;4.788;2023-06-01T07:51:07;11.48;;;4.88;;
47219;SDS011;32961;51.936;4.788;2023-06-01T07:53:35;10.82;;;4.32;;
47219;SDS011;32961;51.936;4.788;2023-06-01T07:56:03;10.07;;;5.40;;
47219;SDS011;32961;51.936;4.788;2023-06-01T07:58:31;12.90;;;5.15;;
47219;SDS011;32961;51.936;4.788;2023-06-01T08:00:59;10.23;;;4.25;;
47219;SDS011;32961;51.936;4.788;2023-06-01T08:03:29;9.25;;;4.20;;
47219;SDS011;32961;51.936;4.788;2023-06-01T08:05:59;13.05;;;4.80;;
47219;SDS011;32961;51.936;4.788;2023-06-01T08:08:32;14.95;;;5.00;;
47219;SDS011;32961;51.936;4.788;2023-06-01T08:10:59;7.63;;;4.75;;
47219;SDS011;32961;51.936;4.788;2023-06-01T08:13:27;8.93;;;4.57;;
47219;SDS011;32961;51.936;4.788;2023-06-01T08:15:55;12.88;;;5.05;;
47219;SDS011;32961;51.936;4.788;2023-06-01T08:18:23;13.60;;;4.85;;
47219;SDS011;32961;51.936;4.788;2023-06-01T08:20:52;6.45;;;4.30;;
47219;SDS011;32961;51.936;4.788;2023-06-01T08:23:21;7.80;;;4.05;;
47219;SDS011;32961;51.936;4.788;2023-06-01T08:25:49;11.32;;;4.70;;
47219;SDS011;32961;51.936;4.788;2023-06-01T08:28:17;10.60;;;5.00;;
47219;SDS011;32961;51.936;4.788;2023-06-01T08:30:45;9.43;;;4.60;;
47219;SDS011;32961;51.936;4.788;2023-06-01T08:33:13;13.75;;;5.35;;
47219;SDS011;32961;51.936;4.788;2023-06-01T08:35:41;12.75;;;4.70;;
47219;SDS011;32961;51.936;4.788;2023-06-01T08:38:11;10.07;;;4.07;;
47219;SDS011;32961;51.936;4.788;2023-06-01T08:40:39;8.77;;;4.28;;
47219;SDS011;32961;51.936;4.788;2023-06-01T08:43:09;11.27;;;4.15;;
47219;SDS011;32961;51.936;4.788;2023-06-01T08:45:43;12.68;;;4.47;;
47219;SDS011;32961;51.936;4.788;2023-06-01T08:48:14;17.45;;;5.18;;
47219;SDS011;32961;51.936;4.788;2023-06-01T08:50:47;9.68;;;5.20;;
47219;SDS011;32961;51.936;4.788;2023-06-01T08:53:19;13.65;;;4.90;;
47219;SDS011;32961;51.936;4.788;2023-06-01T08:55:50;10.48;;;4.07;;
47219;SDS011;32961;51.936;4.788;2023-06-01T08:58:19;8.45;;;4.25;;
47219;SDS011;32961;51.936;4.788;2023-06-01T09:00:47;8.57;;;4.18;;
47219;SDS011;32961;51.936;4.788;2023-06-01T09:03:15;12.52;;;4.53;;
47219;SDS011;32961;51.936;4.788;2023-06-01T09:05:44;8.80;;;4.35;;
47219;SDS011;32961;51.936;4.788;2023-06-01T09:08:12;8.68;;;4.68;;
47219;SDS011;32961;51.936;4.788;2023-06-01T09:10:44;7.47;;;3.97;;
47219;SDS011;32961;51.936;4.788;2023-06-01T09:13:12;7.63;;;4.22;;
47219;SDS011;32961;51.936;4.788;2023-06-01T09:15:50;9.77;;;4.20;;
47219;SDS011;32961;51.936;4.788;2023-06-01T09:18:19;8.52;;;4.43;;
47219;SDS011;32961;51.936;4.788;2023-06-01T09:20:47;9.63;;;4.45;;
47219;SDS011;32961;51.936;4.788;2023-06-01T09:23:22;11.35;;;4.25;;
47219;SDS011;32961;51.936;4.788;2023-06-01T09:26:04;7.45;;;4.85;;
47219;SDS011;32961;51.936;4.788;2023-06-01T09:31:35;6.55;;;4.50;;
47219;SDS011;32961;51.936;4.788;2023-06-01T09:34:04;12.38;;;4.25;;
47219;SDS011;32961;51.936;4.788;2023-06-01T09:36:32;9.73;;;4.20;;
47219;SDS011;32961;51.936;4.788;2023-06-01T09:39:01;11.23;;;4.18;;
47219;SDS011;32961;51.936;4.788;2023-06-01T09:44:24;10.80;;;4.72;;
47219;SDS011;32961;51.936;4.788;2023-06-01T09:46:54;8.80;;;4.70;;
47219;SDS011;32961;51.936;4.788;2023-06-01T09:49:24;11.50;;;4.43;;
47219;SDS011;32961;51.936;4.788;2023-06-01T09:51:53;10.57;;;4.47;;
47219;SDS011;32961;51.936;4.788;2023-06-01T09:54:36;7.88;;;4.78;;
47219;SDS011;32961;51.936;4.788;2023-06-01T09:57:07;12.07;;;6.13;;
47219;SDS011;32961;51.936;4.788;2023-06-01T09:59:38;9.82;;;4.68;;
47219;SDS011;32961;51.936;4.788;2023-06-01T10:02:10;8.15;;;4.13;;
47219;SDS011;32961;51.936;4.788;2023-06-01T10:04:40;8.40;;;4.82;;
47219;SDS011;32961;51.936;4.788;2023-06-01T10:07:09;11.13;;;4.55;;
47219;SDS011;32961;51.936;4.788;2023-06-01T10:09:40;11.68;;;4.85;;
47219;SDS011;32961;51.936;4.788;2023-06-01T10:12:10;10.60;;;4.32;;
47219;SDS011;32961;51.936;4.788;2023-06-01T10:14:38;9.82;;;4.65;;
47219;SDS011;32961;51.936;4.788;2023-06-01T10:17:09;12.50;;;4.97;;
47219;SDS011;32961;51.936;4.788;2023-06-01T10:19:38;10.88;;;4.43;;
47219;SDS011;32961;51.936;4.788;2023-06-01T10:22:06;12.07;;;4.53;;
47219;SDS011;32961;51.936;4.788;2023-06-01T10:24:35;9.65;;;5.05;;
47219;SDS011;32961;51.936;4.788;2023-06-01T10:27:11;12.13;;;4.80;;
47219;SDS011;32961;51.936;4.788;2023-06-01T10:29:43;10.60;;;4.60;;
47219;SDS011;32961;51.936;4.788;2023-06-01T10:40:52;11.15;;;4.85;;
47219;SDS011;32961;51.936;4.788;2023-06-01T10:43:42;9.00;;;4.90;;
47219;SDS011;32961;51.936;4.788;2023-06-01T10:49:10;8.10;;;4.88;;
47219;SDS011;32961;51.936;4.788;2023-06-01T10:51:38;14.90;;;5.05;;
47219;SDS011;32961;51.936;4.788;2023-06-01T11:00:13;8.73;;;4.90;;
47219;SDS011;32961;51.936;4.788;2023-06-01T11:02:43;9.05;;;5.13;;
47219;SDS011;32961;51.936;4.788;2023-06-01T11:14:29;9.80;;;5.28;;
47219;SDS011;32961;51.936;4.788;2023-06-01T11:19:58;9.32;;;5.43;;
47219;SDS011;32961;51.936;4.788;2023-06-01T11:22:35;9.50;;;5.15;;
47219;SDS011;32961;51.936;4.788;2023-06-01T11:25:05;9.77;;;5.13;;
47219;SDS011;32961;51.936;4.788;2023-06-01T11:27:35;13.18;;;5.55;;
47219;SDS011;32961;51.936;4.788;2023-06-01T11:30:04;9.25;;;5.22;;
47219;SDS011;32961;51.936;4.788;2023-06-01T11:32:34;14.88;;;5.80;;
47219;SDS011;32961;51.936;4.788;2023-06-01T11:35:15;12.85;;;5.70;;
47219;SDS011;32961;51.936;4.788;2023-06-01T11:37:44;14.85;;;6.07;;
47219;SDS011;32961;51.936;4.788;2023-06-01T11:40:14;12.52;;;5.47;;
47219;SDS011;32961;51.936;4.788;2023-06-01T11:42:42;11.75;;;5.68;;
47219;SDS011;32961;51.936;4.788;2023-06-01T11:45:14;9.65;;;6.10;;
47219;SDS011;32961;51.936;4.788;2023-06-01T11:47:44;10.73;;;5.45;;
47219;SDS011;32961;51.936;4.788;2023-06-01T11:50:22;9.88;;;6.20;;
47219;SDS011;32961;51.936;4.788;2023-06-01T11:52:54;10.82;;;6.50;;
47219;SDS011;32961;51.936;4.788;2023-06-01T11:55:23;12.73;;;5.93;;
47219;SDS011;32961;51.936;4.788;2023-06-01T11:57:51;10.98;;;5.38;;
47219;SDS011;32961;51.936;4.788;2023-06-01T12:00:19;17.95;;;6.68;;
47219;SDS011;32961;51.936;4.788;2023-06-01T12:02:49;14.30;;;6.47;;
47219;SDS011;32961;51.936;4.788;2023-06-01T12:05:37;12.80;;;5.70;;
47219;SDS011;32961;51.936;4.788;2023-06-01T12:08:06;14.38;;;6.10;;
47219;SDS011;32961;51.936;4.788;2023-06-01T12:10:34;10.35;;;5.32;;
47219;SDS011;32961;51.936;4.788;2023-06-01T12:13:03;13.13;;;6.30;;
47219;SDS011;32961;51.936;4.788;2023-06-01T12:15:31;12.13;;;5.90;;
47219;SDS011;32961;51.936;4.788;2023-06-01T12:18:00;11.10;;;5.40;;
47219;SDS011;32961;51.936;4.788;2023-06-01T12:20:29;10.20;;;6.72;;
47219;SDS011;32961;51.936;4.788;2023-06-01T12:22:57;12.38;;;5.45;;
47219;SDS011;32961;51.936;4.788;2023-06-01T12:25:27;9.30;;;5.57;;
47219;SDS011;32961;51.936;4.788;2023-06-01T12:28:03;9.30;;;5.22;;
47219;SDS011;32961;51.936;4.788;2023-06-01T12:30:32;11.13;;;5.55;;
47219;SDS011;32961;51.936;4.788;2023-06-01T12:33:02;13.07;;;5.70;;
47219;SDS011;32961;51.936;4.788;2023-06-01T12:35:31;10.23;;;5.60;;
47219;SDS011;32961;51.936;4.788;2023-06-01T12:38:03;13.82;;;5.85;;
47219;SDS011;32961;51.936;4.788;2023-06-01T12:40:33;24.38;;;6.05;;
47219;SDS011;32961;51.936;4.788;2023-06-01T12:43:01;15.68;;;5.85;;
47219;SDS011;32961;51.936;4.788;2023-06-01T12:45:36;13.48;;;6.90;;
47219;SDS011;32961;51.936;4.788;2023-06-01T12:48:07;8.95;;;5.60;;
47219;SDS011;32961;51.936;4.788;2023-06-01T12:50:42;14.60;;;6.30;;
47219;SDS011;32961;51.936;4.788;2023-06-01T12:53:11;11.18;;;5.20;;
47219;SDS011;32961;51.936;4.788;2023-06-01T12:55:40;12.80;;;6.55;;
47219;SDS011;32961;51.936;4.788;2023-06-01T12:58:08;10.10;;;5.70;;
47219;SDS011;32961;51.936;4.788;2023-06-01T13:00:36;13.63;;;6.07;;
47219;SDS011;32961;51.936;4.788;2023-06-01T13:03:23;12.45;;;5.40;;
47219;SDS011;32961;51.936;4.788;2023-06-01T13:05:51;9.75;;;5.18;;
47219;SDS011;32961;51.936;4.788;2023-06-01T13:08:19;9.80;;;4.68;;
47219;SDS011;32961;51.936;4.788;2023-06-01T13:10:48;9.63;;;4.35;;
47219;SDS011;32961;51.936;4.788;2023-06-01T13:13:16;8.65;;;3.90;;
47219;SDS011;32961;51.936;4.788;2023-06-01T13:15:45;6.90;;;4.00;;
47219;SDS011;32961;51.936;4.788;2023-06-01T13:18:13;6.72;;;3.55;;
47219;SDS011;32961;51.936;4.788;2023-06-01T13:20:43;10.85;;;4.43;;
47219;SDS011;32961;51.936;4.788;2023-06-01T13:23:11;7.38;;;4.05;;
47219;SDS011;32961;51.936;4.788;2023-06-01T13:25:39;10.57;;;3.40;;
47219;SDS011;32961;51.936;4.788;2023-06-01T13:28:08;9.82;;;3.83;;
47219;SDS011;32961;51.936;4.788;2023-06-01T13:30:36;6.55;;;3.95;;
47219;SDS011;32961;51.936;4.788;2023-06-01T13:33:04;6.13;;;3.53;;
47219;SDS011;32961;51.936;4.788;2023-06-01T13:35:32;7.15;;;3.35;;
47219;SDS011;32961;51.936;4.788;2023-06-01T13:38:01;9.05;;;3.80;;
47219;SDS011;32961;51.936;4.788;2023-06-01T13:40:30;6.72;;;3.78;;
47219;SDS011;32961;51.936;4.788;2023-06-01T13:42:59;4.65;;;3.20;;
47219;SDS011;32961;51.936;4.788;2023-06-01T13:45:27;5.88;;;4.10;;
47219;SDS011;32961;51.936;4.788;2023-06-01T13:47:56;6.80;;;3.70;;
47219;SDS011;32961;51.936;4.788;2023-06-01T13:50:25;4.43;;;3.38;;
47219;SDS011;32961;51.936;4.788;2023-06-01T13:52:53;6.93;;;3.25;;
47219;SDS011;32961;51.936;4.788;2023-06-01T13:55:22;6.55;;;3.65;;
47219;SDS011;32961;51.936;4.788;2023-06-01T13:57:51;4.90;;;3.60;;
47219;SDS011;32961;51.936;4.788;2023-06-01T14:00:19;5.38;;;3.05;;
47219;SDS011;32961;51.936;4.788;2023-06-01T14:02:48;5.50;;;3.25;;
47219;SDS011;32961;51.936;4.788;2023-06-01T14:05:16;6.97;;;3.08;;
47219;SDS011;32961;51.936;4.788;2023-06-01T14:07:53;11.88;;;3.70;;
47219;SDS011;32961;51.936;4.788;2023-06-01T14:10:23;5.32;;;2.88;;
47219;SDS011;32961;51.936;4.788;2023-06-01T14:12:51;5.90;;;2.78;;
47219;SDS011;32961;51.936;4.788;2023-06-01T14:15:19;3.78;;;2.42;;
47219;SDS011;32961;51.936;4.788;2023-06-01T14:17:47;3.55;;;2.47;;
47219;SDS011;32961;51.936;4.788;2023-06-01T14:20:16;3.63;;;2.40;;
47219;SDS011;32961;51.936;4.788;2023-06-01T14:22:44;4.78;;;2.25;;
47219;SDS011;32961;51.936;4.788;2023-06-01T14:25:12;12.45;;;2.60;;
47219;SDS011;32961;51.936;4.788;2023-06-01T14:27:42;5.55;;;2.08;;
47219;SDS011;32961;51.936;4.788;2023-06-01T14:30:10;6.03;;;2.58;;
47219;SDS011;32961;51.936;4.788;2023-06-01T14:32:38;2.95;;;1.92;;
47219;SDS011;32961;51.936;4.788;2023-06-01T14:35:07;6.32;;;1.77;;
47219;SDS011;32961;51.936;4.788;2023-06-01T14:37:35;4.70;;;2.08;;
47219;SDS011;32961;51.936;4.788;2023-06-01T14:40:15;4.45;;;2.42;;
47219;SDS011;32961;51.936;4.788;2023-06-01T14:42:44;4.30;;;1.90;;
47219;SDS011;32961;51.936;4.788;2023-06-01T14:45:12;3.97;;;2.22;;
47219;SDS011;32961;51.936;4.788;2023-06-01T14:47:40;6.25;;;2.65;;
47219;SDS011;32961;51.936;4.788;2023-06-01T14:50:09;3.65;;;1.80;;
47219;SDS011;32961;51.936;4.788;2023-06-01T14:52:37;3.75;;;2.10;;
47219;SDS011;32961;51.936;4.788;2023-06-01T14:55:05;3.40;;;1.60;;
47219;SDS011;32961;51.936;4.788;2023-06-01T14:57:33;5.45;;;1.75;;
47219;SDS011;32961;51.936;4.788;2023-06-01T15:00:03;5.88;;;2.10;;
47219;SDS011;32961;51.936;4.788;2023-06-01T15:02:32;5.38;;;1.58;;
47219;SDS011;32961;51.936;4.788;2023-06-01T15:05:00;6.60;;;2.17;;
47219;SDS011;32961;51.936;4.788;2023-06-01T15:07:28;5.75;;;1.90;;
47219;SDS011;32961;51.936;4.788;2023-06-01T15:09:57;5.43;;;2.05;;
47219;SDS011;32961;51.936;4.788;2023-06-01T15:12:24;8.27;;;1.67;;
47219;SDS011;32961;51.936;4.788;2023-06-01T15:14:54;2.33;;;1.80;;
47219;SDS011;32961;51.936;4.788;2023-06-01T15:17:24;4.45;;;1.85;;
47219;SDS011;32961;51.936;4.788;2023-06-01T15:19:52;6.10;;;2.15;;
47219;SDS011;32961;51.936;4.788;2023-06-01T15:22:20;3.63;;;1.92;;
47219;SDS011;32961;51.936;4.788;2023-06-01T15:24:48;2.97;;;1.75;;
47219;SDS011;32961;51.936;4.788;2023-06-01T15:27:16;5.22;;;2.15;;